sensor_id;sensor_type;location;lat;lon;timestamp;P1;durP1;ratioP1;P2;durP2;ratioP2
18259;SDS011;9256;52.236;5.712;2024-01-30T00:01:23;28.13;;;12.63;;
18259;SDS011;9256;52.236;5.712;2024-01-30T00:03:50;28.00;;;12.18;;
18259;SDS011;9256;52.236;5.712;2024-01-30T00:06:18;25.92;;;12.05;;
18259;SDS011;9256;52.236;5.712;2024-01-30T00:08:46;26.35;;;12.77;;
18259;SDS011;9256;52.236;5.712;2024-01-30T00:11:15;24.90;;;11.82;;
18259;SDS011;9256;52.236;5.712;2024-01-30T00:13:42;25.65;;;12.18;;
18259;SDS011;9256;52.236;5.712;2024-01-30T00:16:19;24.48;;;12.13;;
18259;SDS011;9256;52.236;5.712;2024-01-30T00:18:47;24.98;;;11.65;;
18259;SDS011;9256;52.236;5.712;2024-01-30T00:21:14;25.45;;;11.93;;
18259;SDS011;9256;52.236;5.712;2024-01-30T00:23:41;25.42;;;12.15;;
18259;SDS011;9256;52.236;5.712;2024-01-30T00:26:08;27.65;;;12.00;;
18259;SDS011;9256;52.236;5.712;2024-01-30T00:28:38;27.42;;;12.35;;
18259;SDS011;9256;52.236;5.712;2024-01-30T00:31:05;26.77;;;11.82;;
18259;SDS011;9256;52.236;5.712;2024-01-30T00:33:32;26.40;;;12.40;;
18259;SDS011;9256;52.236;5.712;2024-01-30T00:35:59;24.65;;;11.23;;
18259;SDS011;9256;52.236;5.712;2024-01-30T00:38:27;24.00;;;11.48;;
18259;SDS011;9256;52.236;5.712;2024-01-30T00:40:54;26.10;;;12.02;;
18259;SDS011;9256;52.236;5.712;2024-01-30T00:43:21;26.67;;;11.95;;
18259;SDS011;9256;52.236;5.712;2024-01-30T00:45:51;27.00;;;11.43;;
18259;SDS011;9256;52.236;5.712;2024-01-30T00:48:19;28.50;;;11.82;;
18259;SDS011;9256;52.236;5.712;2024-01-30T00:50:46;25.65;;;11.75;;
18259;SDS011;9256;52.236;5.712;2024-01-30T00:53:13;25.40;;;11.70;;
18259;SDS011;9256;52.236;5.712;2024-01-30T00:55:40;27.33;;;11.77;;
18259;SDS011;9256;52.236;5.712;2024-01-30T00:58:08;24.17;;;11.38;;
18259;SDS011;9256;52.236;5.712;2024-01-30T01:00:35;23.17;;;11.27;;
18259;SDS011;9256;52.236;5.712;2024-01-30T01:03:04;25.92;;;12.13;;
18259;SDS011;9256;52.236;5.712;2024-01-30T01:05:31;25.50;;;11.93;;
18259;SDS011;9256;52.236;5.712;2024-01-30T01:07:58;25.45;;;11.45;;
18259;SDS011;9256;52.236;5.712;2024-01-30T01:10:25;24.38;;;11.93;;
18259;SDS011;9256;52.236;5.712;2024-01-30T01:12:53;26.00;;;12.20;;
18259;SDS011;9256;52.236;5.712;2024-01-30T01:15:21;27.52;;;11.75;;
18259;SDS011;9256;52.236;5.712;2024-01-30T01:17:48;27.17;;;11.43;;
18259;SDS011;9256;52.236;5.712;2024-01-30T01:20:16;29.70;;;11.63;;
18259;SDS011;9256;52.236;5.712;2024-01-30T01:22:43;28.05;;;12.60;;
18259;SDS011;9256;52.236;5.712;2024-01-30T01:25:11;29.38;;;11.90;;
18259;SDS011;9256;52.236;5.712;2024-01-30T01:27:38;27.58;;;11.63;;
18259;SDS011;9256;52.236;5.712;2024-01-30T01:30:07;27.88;;;12.00;;
18259;SDS011;9256;52.236;5.712;2024-01-30T01:32:35;25.77;;;12.02;;
18259;SDS011;9256;52.236;5.712;2024-01-30T01:35:03;27.73;;;12.25;;
18259;SDS011;9256;52.236;5.712;2024-01-30T01:37:32;27.50;;;12.35;;
18259;SDS011;9256;52.236;5.712;2024-01-30T01:40:00;26.63;;;12.05;;
18259;SDS011;9256;52.236;5.712;2024-01-30T01:42:27;25.63;;;12.27;;
18259;SDS011;9256;52.236;5.712;2024-01-30T01:44:54;30.60;;;12.50;;
18259;SDS011;9256;52.236;5.712;2024-01-30T01:47:21;30.40;;;15.75;;
18259;SDS011;9256;52.236;5.712;2024-01-30T01:49:49;27.02;;;12.70;;
18259;SDS011;9256;52.236;5.712;2024-01-30T01:52:16;25.40;;;12.38;;
18259;SDS011;9256;52.236;5.712;2024-01-30T01:54:45;24.60;;;11.90;;
18259;SDS011;9256;52.236;5.712;2024-01-30T01:57:12;26.45;;;12.15;;
18259;SDS011;9256;52.236;5.712;2024-01-30T01:59:39;24.42;;;11.02;;
18259;SDS011;9256;52.236;5.712;2024-01-30T02:02:07;24.55;;;11.55;;
18259;SDS011;9256;52.236;5.712;2024-01-30T02:04:38;26.83;;;13.18;;
18259;SDS011;9256;52.236;5.712;2024-01-30T02:07:05;31.23;;;12.25;;
18259;SDS011;9256;52.236;5.712;2024-01-30T02:09:32;25.33;;;11.77;;
18259;SDS011;9256;52.236;5.712;2024-01-30T02:12:01;28.20;;;11.77;;
18259;SDS011;9256;52.236;5.712;2024-01-30T02:14:28;29.27;;;11.85;;
18259;SDS011;9256;52.236;5.712;2024-01-30T02:16:55;26.00;;;11.32;;
18259;SDS011;9256;52.236;5.712;2024-01-30T02:19:22;25.63;;;11.10;;
18259;SDS011;9256;52.236;5.712;2024-01-30T02:21:51;25.95;;;11.77;;
18259;SDS011;9256;52.236;5.712;2024-01-30T02:24:19;24.70;;;11.38;;
18259;SDS011;9256;52.236;5.712;2024-01-30T02:26:46;23.90;;;11.40;;
18259;SDS011;9256;52.236;5.712;2024-01-30T02:29:13;26.73;;;11.63;;
18259;SDS011;9256;52.236;5.712;2024-01-30T02:31:40;25.57;;;11.57;;
18259;SDS011;9256;52.236;5.712;2024-01-30T02:34:07;26.23;;;11.68;;
18259;SDS011;9256;52.236;5.712;2024-01-30T02:36:35;23.42;;;10.77;;
18259;SDS011;9256;52.236;5.712;2024-01-30T02:39:03;25.77;;;11.60;;
18259;SDS011;9256;52.236;5.712;2024-01-30T02:41:30;24.73;;;11.30;;
18259;SDS011;9256;52.236;5.712;2024-01-30T02:43:58;27.40;;;11.55;;
18259;SDS011;9256;52.236;5.712;2024-01-30T02:46:25;25.95;;;12.00;;
18259;SDS011;9256;52.236;5.712;2024-01-30T02:48:52;29.08;;;11.82;;
18259;SDS011;9256;52.236;5.712;2024-01-30T02:51:19;26.05;;;11.07;;
18259;SDS011;9256;52.236;5.712;2024-01-30T02:53:46;24.90;;;11.98;;
18259;SDS011;9256;52.236;5.712;2024-01-30T02:56:15;25.20;;;11.20;;
18259;SDS011;9256;52.236;5.712;2024-01-30T02:58:42;28.47;;;14.47;;
18259;SDS011;9256;52.236;5.712;2024-01-30T03:01:08;27.80;;;12.68;;
18259;SDS011;9256;52.236;5.712;2024-01-30T03:03:35;28.92;;;12.45;;
18259;SDS011;9256;52.236;5.712;2024-01-30T03:06:03;27.40;;;12.07;;
18259;SDS011;9256;52.236;5.712;2024-01-30T03:08:30;33.13;;;13.23;;
18259;SDS011;9256;52.236;5.712;2024-01-30T03:10:57;31.83;;;13.90;;
18259;SDS011;9256;52.236;5.712;2024-01-30T03:13:26;27.77;;;11.80;;
18259;SDS011;9256;52.236;5.712;2024-01-30T03:15:53;29.88;;;12.25;;
18259;SDS011;9256;52.236;5.712;2024-01-30T03:18:20;26.13;;;12.20;;
18259;SDS011;9256;52.236;5.712;2024-01-30T03:20:47;28.60;;;12.40;;
18259;SDS011;9256;52.236;5.712;2024-01-30T03:23:14;26.90;;;11.80;;
18259;SDS011;9256;52.236;5.712;2024-01-30T03:25:42;24.55;;;11.38;;
18259;SDS011;9256;52.236;5.712;2024-01-30T03:28:09;26.52;;;11.73;;
18259;SDS011;9256;52.236;5.712;2024-01-30T03:30:37;27.52;;;12.25;;
18259;SDS011;9256;52.236;5.712;2024-01-30T03:33:04;26.80;;;12.00;;
18259;SDS011;9256;52.236;5.712;2024-01-30T03:35:32;24.52;;;11.65;;
18259;SDS011;9256;52.236;5.712;2024-01-30T03:37:59;22.60;;;11.38;;
18259;SDS011;9256;52.236;5.712;2024-01-30T03:40:26;26.23;;;11.90;;
18259;SDS011;9256;52.236;5.712;2024-01-30T03:42:53;26.15;;;11.32;;
18259;SDS011;9256;52.236;5.712;2024-01-30T03:45:20;25.60;;;11.57;;
18259;SDS011;9256;52.236;5.712;2024-01-30T03:47:49;22.50;;;10.75;;
18259;SDS011;9256;52.236;5.712;2024-01-30T03:50:16;27.65;;;11.23;;
18259;SDS011;9256;52.236;5.712;2024-01-30T03:52:43;27.23;;;11.15;;
18259;SDS011;9256;52.236;5.712;2024-01-30T03:55:11;25.05;;;11.65;;
18259;SDS011;9256;52.236;5.712;2024-01-30T03:57:38;23.40;;;11.30;;
18259;SDS011;9256;52.236;5.712;2024-01-30T04:00:05;24.37;;;11.27;;
18259;SDS011;9256;52.236;5.712;2024-01-30T04:02:33;27.67;;;13.00;;
18259;SDS011;9256;52.236;5.712;2024-01-30T04:05:02;25.73;;;11.30;;
18259;SDS011;9256;52.236;5.712;2024-01-30T04:07:29;25.65;;;11.63;;
18259;SDS011;9256;52.236;5.712;2024-01-30T04:09:56;24.77;;;10.68;;
18259;SDS011;9256;52.236;5.712;2024-01-30T04:12:23;26.13;;;10.77;;
18259;SDS011;9256;52.236;5.712;2024-01-30T04:14:50;26.67;;;11.30;;
18259;SDS011;9256;52.236;5.712;2024-01-30T04:17:18;26.55;;;11.73;;
18259;SDS011;9256;52.236;5.712;2024-01-30T04:19:45;26.33;;;10.52;;
18259;SDS011;9256;52.236;5.712;2024-01-30T04:22:14;21.90;;;10.45;;
18259;SDS011;9256;52.236;5.712;2024-01-30T04:24:41;24.20;;;10.90;;
18259;SDS011;9256;52.236;5.712;2024-01-30T04:27:08;25.50;;;12.48;;
18259;SDS011;9256;52.236;5.712;2024-01-30T04:29:35;27.25;;;11.52;;
18259;SDS011;9256;52.236;5.712;2024-01-30T04:32:03;22.17;;;10.65;;
18259;SDS011;9256;52.236;5.712;2024-01-30T04:34:30;21.90;;;10.50;;
18259;SDS011;9256;52.236;5.712;2024-01-30T04:36:57;25.25;;;12.25;;
18259;SDS011;9256;52.236;5.712;2024-01-30T04:39:26;23.05;;;10.43;;
18259;SDS011;9256;52.236;5.712;2024-01-30T04:41:53;18.50;;;10.20;;
18259;SDS011;9256;52.236;5.712;2024-01-30T04:44:20;22.25;;;10.52;;
18259;SDS011;9256;52.236;5.712;2024-01-30T04:46:47;20.92;;;9.77;;
18259;SDS011;9256;52.236;5.712;2024-01-30T04:49:15;21.52;;;9.95;;
18259;SDS011;9256;52.236;5.712;2024-01-30T04:51:42;24.33;;;9.75;;
18259;SDS011;9256;52.236;5.712;2024-01-30T04:54:09;21.13;;;9.70;;
18259;SDS011;9256;52.236;5.712;2024-01-30T04:56:37;21.40;;;9.75;;
18259;SDS011;9256;52.236;5.712;2024-01-30T04:59:05;19.83;;;9.35;;
18259;SDS011;9256;52.236;5.712;2024-01-30T05:01:33;19.85;;;9.57;;
18259;SDS011;9256;52.236;5.712;2024-01-30T05:04:00;21.88;;;10.10;;
18259;SDS011;9256;52.236;5.712;2024-01-30T05:06:28;20.30;;;9.50;;
18259;SDS011;9256;52.236;5.712;2024-01-30T05:08:56;23.42;;;9.95;;
18259;SDS011;9256;52.236;5.712;2024-01-30T05:11:23;21.33;;;9.25;;
18259;SDS011;9256;52.236;5.712;2024-01-30T05:13:51;22.65;;;9.45;;
18259;SDS011;9256;52.236;5.712;2024-01-30T05:16:18;20.58;;;9.45;;
18259;SDS011;9256;52.236;5.712;2024-01-30T05:18:46;22.05;;;10.10;;
18259;SDS011;9256;52.236;5.712;2024-01-30T05:21:13;23.35;;;10.00;;
18259;SDS011;9256;52.236;5.712;2024-01-30T05:23:40;20.88;;;9.90;;
18259;SDS011;9256;52.236;5.712;2024-01-30T05:26:07;22.40;;;9.85;;
18259;SDS011;9256;52.236;5.712;2024-01-30T05:28:35;22.45;;;9.88;;
18259;SDS011;9256;52.236;5.712;2024-01-30T05:31:04;26.77;;;9.82;;
18259;SDS011;9256;52.236;5.712;2024-01-30T05:33:31;23.35;;;9.77;;
18259;SDS011;9256;52.236;5.712;2024-01-30T05:35:58;19.67;;;9.32;;
18259;SDS011;9256;52.236;5.712;2024-01-30T05:38:26;22.45;;;9.85;;
18259;SDS011;9256;52.236;5.712;2024-01-30T05:40:53;20.48;;;9.57;;
18259;SDS011;9256;52.236;5.712;2024-01-30T05:43:23;19.90;;;9.57;;
18259;SDS011;9256;52.236;5.712;2024-01-30T05:45:50;23.20;;;9.38;;
18259;SDS011;9256;52.236;5.712;2024-01-30T05:48:19;23.02;;;9.55;;
18259;SDS011;9256;52.236;5.712;2024-01-30T05:50:46;20.95;;;8.95;;
18259;SDS011;9256;52.236;5.712;2024-01-30T05:53:13;20.33;;;9.05;;
18259;SDS011;9256;52.236;5.712;2024-01-30T05:55:41;20.95;;;9.60;;
18259;SDS011;9256;52.236;5.712;2024-01-30T05:58:08;21.48;;;9.35;;
18259;SDS011;9256;52.236;5.712;2024-01-30T06:00:35;19.52;;;9.10;;
18259;SDS011;9256;52.236;5.712;2024-01-30T06:03:04;20.95;;;11.20;;
18259;SDS011;9256;52.236;5.712;2024-01-30T06:05:32;21.55;;;10.15;;
18259;SDS011;9256;52.236;5.712;2024-01-30T06:07:59;19.63;;;9.40;;
18259;SDS011;9256;52.236;5.712;2024-01-30T06:10:27;19.83;;;8.73;;
18259;SDS011;9256;52.236;5.712;2024-01-30T06:12:54;21.20;;;8.85;;
18259;SDS011;9256;52.236;5.712;2024-01-30T06:15:23;22.58;;;9.75;;
18259;SDS011;9256;52.236;5.712;2024-01-30T06:17:51;18.23;;;8.93;;
18259;SDS011;9256;52.236;5.712;2024-01-30T06:20:18;22.33;;;9.40;;
18259;SDS011;9256;52.236;5.712;2024-01-30T06:22:46;18.88;;;9.07;;
18259;SDS011;9256;52.236;5.712;2024-01-30T06:25:14;20.97;;;10.77;;
18259;SDS011;9256;52.236;5.712;2024-01-30T06:27:41;21.00;;;9.55;;
18259;SDS011;9256;52.236;5.712;2024-01-30T06:30:09;20.30;;;8.95;;
18259;SDS011;9256;52.236;5.712;2024-01-30T06:32:36;20.98;;;8.90;;
18259;SDS011;9256;52.236;5.712;2024-01-30T06:35:04;18.58;;;8.90;;
18259;SDS011;9256;52.236;5.712;2024-01-30T06:37:32;19.73;;;9.25;;
18259;SDS011;9256;52.236;5.712;2024-01-30T06:40:00;17.50;;;8.27;;
18259;SDS011;9256;52.236;5.712;2024-01-30T06:42:29;19.50;;;8.63;;
18259;SDS011;9256;52.236;5.712;2024-01-30T06:44:56;19.80;;;8.57;;
18259;SDS011;9256;52.236;5.712;2024-01-30T06:47:24;19.83;;;8.77;;
18259;SDS011;9256;52.236;5.712;2024-01-30T06:49:51;19.47;;;10.27;;
18259;SDS011;9256;52.236;5.712;2024-01-30T06:52:18;20.73;;;9.38;;
18259;SDS011;9256;52.236;5.712;2024-01-30T06:54:45;18.95;;;8.60;;
18259;SDS011;9256;52.236;5.712;2024-01-30T06:57:17;20.17;;;9.07;;
18259;SDS011;9256;52.236;5.712;2024-01-30T06:59:44;22.70;;;8.88;;
18259;SDS011;9256;52.236;5.712;2024-01-30T07:02:12;18.58;;;8.50;;
18259;SDS011;9256;52.236;5.712;2024-01-30T07:04:39;20.05;;;9.05;;
18259;SDS011;9256;52.236;5.712;2024-01-30T07:07:07;17.42;;;8.35;;
18259;SDS011;9256;52.236;5.712;2024-01-30T07:09:37;19.63;;;8.55;;
18259;SDS011;9256;52.236;5.712;2024-01-30T07:12:05;25.23;;;9.02;;
18259;SDS011;9256;52.236;5.712;2024-01-30T07:14:34;20.80;;;9.40;;
18259;SDS011;9256;52.236;5.712;2024-01-30T07:17:01;19.98;;;9.02;;
18259;SDS011;9256;52.236;5.712;2024-01-30T07:19:28;19.38;;;8.65;;
18259;SDS011;9256;52.236;5.712;2024-01-30T07:21:56;19.88;;;8.73;;
18259;SDS011;9256;52.236;5.712;2024-01-30T07:24:24;16.70;;;8.38;;
18259;SDS011;9256;52.236;5.712;2024-01-30T07:26:52;18.52;;;8.25;;
18259;SDS011;9256;52.236;5.712;2024-01-30T07:29:19;18.25;;;8.32;;
18259;SDS011;9256;52.236;5.712;2024-01-30T07:31:48;17.75;;;8.20;;
18259;SDS011;9256;52.236;5.712;2024-01-30T07:34:16;19.75;;;8.77;;
18259;SDS011;9256;52.236;5.712;2024-01-30T07:36:43;18.85;;;8.48;;
18259;SDS011;9256;52.236;5.712;2024-01-30T07:39:12;18.45;;;8.43;;
18259;SDS011;9256;52.236;5.712;2024-01-30T07:41:39;18.10;;;8.15;;
18259;SDS011;9256;52.236;5.712;2024-01-30T07:44:06;17.48;;;8.13;;
18259;SDS011;9256;52.236;5.712;2024-01-30T07:46:33;17.00;;;8.05;;
18259;SDS011;9256;52.236;5.712;2024-01-30T07:49:02;18.13;;;8.35;;
18259;SDS011;9256;52.236;5.712;2024-01-30T07:51:29;20.65;;;8.55;;
18259;SDS011;9256;52.236;5.712;2024-01-30T07:53:58;20.58;;;8.52;;
18259;SDS011;9256;52.236;5.712;2024-01-30T07:56:25;16.13;;;7.95;;
18259;SDS011;9256;52.236;5.712;2024-01-30T07:58:53;19.85;;;8.35;;
18259;SDS011;9256;52.236;5.712;2024-01-30T08:01:20;17.52;;;8.13;;
18259;SDS011;9256;52.236;5.712;2024-01-30T08:03:47;22.77;;;8.38;;
18259;SDS011;9256;52.236;5.712;2024-01-30T08:06:16;21.30;;;8.98;;
18259;SDS011;9256;52.236;5.712;2024-01-30T08:08:43;21.23;;;8.30;;
18259;SDS011;9256;52.236;5.712;2024-01-30T08:11:10;22.45;;;8.50;;
18259;SDS011;9256;52.236;5.712;2024-01-30T08:13:37;20.23;;;8.60;;
18259;SDS011;9256;52.236;5.712;2024-01-30T08:16:05;18.52;;;8.65;;
18259;SDS011;9256;52.236;5.712;2024-01-30T08:18:32;19.50;;;8.38;;
18259;SDS011;9256;52.236;5.712;2024-01-30T08:20:59;22.50;;;9.43;;
18259;SDS011;9256;52.236;5.712;2024-01-30T08:23:28;19.65;;;8.43;;
18259;SDS011;9256;52.236;5.712;2024-01-30T08:25:55;18.77;;;8.50;;
18259;SDS011;9256;52.236;5.712;2024-01-30T08:28:22;20.85;;;8.57;;
18259;SDS011;9256;52.236;5.712;2024-01-30T08:30:49;22.42;;;9.68;;
18259;SDS011;9256;52.236;5.712;2024-01-30T08:33:16;16.40;;;8.25;;
18259;SDS011;9256;52.236;5.712;2024-01-30T08:35:44;19.08;;;8.18;;
18259;SDS011;9256;52.236;5.712;2024-01-30T08:38:11;20.45;;;8.82;;
18259;SDS011;9256;52.236;5.712;2024-01-30T08:40:39;22.08;;;9.02;;
18259;SDS011;9256;52.236;5.712;2024-01-30T08:43:06;18.27;;;8.10;;
18259;SDS011;9256;52.236;5.712;2024-01-30T08:45:35;19.35;;;8.32;;
18259;SDS011;9256;52.236;5.712;2024-01-30T08:48:02;19.15;;;9.55;;
18259;SDS011;9256;52.236;5.712;2024-01-30T08:50:29;18.55;;;8.52;;
18259;SDS011;9256;52.236;5.712;2024-01-30T08:52:57;18.75;;;8.13;;
18259;SDS011;9256;52.236;5.712;2024-01-30T08:55:24;18.23;;;9.57;;
18259;SDS011;9256;52.236;5.712;2024-01-30T08:57:52;18.50;;;8.38;;
18259;SDS011;9256;52.236;5.712;2024-01-30T09:00:20;17.40;;;8.40;;
18259;SDS011;9256;52.236;5.712;2024-01-30T09:02:47;17.65;;;8.02;;
18259;SDS011;9256;52.236;5.712;2024-01-30T09:05:14;19.02;;;8.07;;
18259;SDS011;9256;52.236;5.712;2024-01-30T09:07:41;20.35;;;8.15;;
18259;SDS011;9256;52.236;5.712;2024-01-30T09:10:08;18.40;;;7.60;;
18259;SDS011;9256;52.236;5.712;2024-01-30T09:12:36;18.38;;;8.43;;
18259;SDS011;9256;52.236;5.712;2024-01-30T09:15:05;17.50;;;8.07;;
18259;SDS011;9256;52.236;5.712;2024-01-30T09:17:32;18.55;;;8.35;;
18259;SDS011;9256;52.236;5.712;2024-01-30T09:19:59;21.63;;;8.57;;
18259;SDS011;9256;52.236;5.712;2024-01-30T09:22:26;20.83;;;8.45;;
18259;SDS011;9256;52.236;5.712;2024-01-30T09:24:53;18.17;;;8.48;;
18259;SDS011;9256;52.236;5.712;2024-01-30T09:27:21;22.33;;;8.70;;
18259;SDS011;9256;52.236;5.712;2024-01-30T09:29:48;22.85;;;8.50;;
18259;SDS011;9256;52.236;5.712;2024-01-30T09:32:16;19.90;;;8.23;;
18259;SDS011;9256;52.236;5.712;2024-01-30T09:34:44;20.13;;;8.23;;
18259;SDS011;9256;52.236;5.712;2024-01-30T09:37:11;19.58;;;8.02;;
18259;SDS011;9256;52.236;5.712;2024-01-30T09:39:40;19.50;;;8.45;;
18259;SDS011;9256;52.236;5.712;2024-01-30T09:42:10;19.38;;;8.88;;
18259;SDS011;9256;52.236;5.712;2024-01-30T09:44:38;20.35;;;8.60;;
18259;SDS011;9256;52.236;5.712;2024-01-30T09:47:07;19.70;;;8.88;;
18259;SDS011;9256;52.236;5.712;2024-01-30T09:49:36;22.23;;;8.15;;
18259;SDS011;9256;52.236;5.712;2024-01-30T09:52:04;20.38;;;8.23;;
18259;SDS011;9256;52.236;5.712;2024-01-30T09:54:32;19.17;;;8.35;;
18259;SDS011;9256;52.236;5.712;2024-01-30T09:56:59;21.60;;;8.73;;
18259;SDS011;9256;52.236;5.712;2024-01-30T09:59:27;23.45;;;8.43;;
18259;SDS011;9256;52.236;5.712;2024-01-30T10:01:54;18.45;;;8.65;;
18259;SDS011;9256;52.236;5.712;2024-01-30T10:04:21;19.80;;;8.30;;
18259;SDS011;9256;52.236;5.712;2024-01-30T10:06:50;20.17;;;10.00;;
18259;SDS011;9256;52.236;5.712;2024-01-30T10:09:18;17.67;;;8.93;;
18259;SDS011;9256;52.236;5.712;2024-01-30T10:11:45;24.77;;;8.85;;
18259;SDS011;9256;52.236;5.712;2024-01-30T10:14:12;22.63;;;8.90;;
18259;SDS011;9256;52.236;5.712;2024-01-30T10:16:39;19.42;;;8.38;;
18259;SDS011;9256;52.236;5.712;2024-01-30T10:19:07;21.55;;;8.90;;
18259;SDS011;9256;52.236;5.712;2024-01-30T10:21:34;20.45;;;9.02;;
18259;SDS011;9256;52.236;5.712;2024-01-30T10:24:03;19.98;;;8.95;;
18259;SDS011;9256;52.236;5.712;2024-01-30T10:26:31;21.58;;;9.20;;
18259;SDS011;9256;52.236;5.712;2024-01-30T10:28:59;18.75;;;8.60;;
18259;SDS011;9256;52.236;5.712;2024-01-30T10:31:27;20.05;;;8.43;;
18259;SDS011;9256;52.236;5.712;2024-01-30T10:33:54;18.67;;;8.52;;
18259;SDS011;9256;52.236;5.712;2024-01-30T10:36:22;20.15;;;8.18;;
18259;SDS011;9256;52.236;5.712;2024-01-30T10:38:53;19.83;;;8.07;;
18259;SDS011;9256;52.236;5.712;2024-01-30T10:41:26;21.15;;;8.05;;
18259;SDS011;9256;52.236;5.712;2024-01-30T10:43:55;17.25;;;8.30;;
18259;SDS011;9256;52.236;5.712;2024-01-30T10:46:26;15.25;;;7.38;;
18259;SDS011;9256;52.236;5.712;2024-01-30T10:48:57;21.98;;;9.18;;
18259;SDS011;9256;52.236;5.712;2024-01-30T10:51:25;17.92;;;7.93;;
18259;SDS011;9256;52.236;5.712;2024-01-30T10:53:53;19.55;;;7.75;;
18259;SDS011;9256;52.236;5.712;2024-01-30T10:56:20;18.15;;;7.90;;
18259;SDS011;9256;52.236;5.712;2024-01-30T10:58:49;14.90;;;6.90;;
18259;SDS011;9256;52.236;5.712;2024-01-30T11:01:17;17.63;;;7.20;;
18259;SDS011;9256;52.236;5.712;2024-01-30T11:03:44;17.55;;;7.03;;
18259;SDS011;9256;52.236;5.712;2024-01-30T11:06:12;17.15;;;6.93;;
18259;SDS011;9256;52.236;5.712;2024-01-30T11:08:43;21.90;;;7.35;;
18259;SDS011;9256;52.236;5.712;2024-01-30T11:11:10;21.55;;;7.90;;
18259;SDS011;9256;52.236;5.712;2024-01-30T11:13:37;14.25;;;7.28;;
18259;SDS011;9256;52.236;5.712;2024-01-30T11:16:06;19.17;;;7.57;;
18259;SDS011;9256;52.236;5.712;2024-01-30T11:18:35;15.15;;;7.53;;
18259;SDS011;9256;52.236;5.712;2024-01-30T11:21:04;19.33;;;7.95;;
18259;SDS011;9256;52.236;5.712;2024-01-30T11:23:33;14.88;;;6.88;;
18259;SDS011;9256;52.236;5.712;2024-01-30T11:26:01;15.60;;;6.22;;
18259;SDS011;9256;52.236;5.712;2024-01-30T11:28:31;19.15;;;6.50;;
18259;SDS011;9256;52.236;5.712;2024-01-30T11:31:02;12.38;;;5.93;;
18259;SDS011;9256;52.236;5.712;2024-01-30T11:33:31;11.52;;;5.85;;
18259;SDS011;9256;52.236;5.712;2024-01-30T11:35:59;18.67;;;6.97;;
18259;SDS011;9256;52.236;5.712;2024-01-30T11:38:27;14.95;;;6.10;;
18259;SDS011;9256;52.236;5.712;2024-01-30T11:40:55;17.13;;;5.87;;
18259;SDS011;9256;52.236;5.712;2024-01-30T11:43:22;17.58;;;5.95;;
18259;SDS011;9256;52.236;5.712;2024-01-30T11:45:50;14.63;;;5.88;;
18259;SDS011;9256;52.236;5.712;2024-01-30T11:48:17;14.45;;;6.10;;
18259;SDS011;9256;52.236;5.712;2024-01-30T11:50:46;13.60;;;5.40;;
18259;SDS011;9256;52.236;5.712;2024-01-30T11:53:13;12.82;;;5.53;;
18259;SDS011;9256;52.236;5.712;2024-01-30T11:55:40;13.32;;;5.55;;
18259;SDS011;9256;52.236;5.712;2024-01-30T11:58:08;12.25;;;4.85;;
18259;SDS011;9256;52.236;5.712;2024-01-30T12:00:35;10.77;;;4.07;;
18259;SDS011;9256;52.236;5.712;2024-01-30T12:03:03;8.55;;;3.75;;
18259;SDS011;9256;52.236;5.712;2024-01-30T12:05:32;8.18;;;3.28;;
18259;SDS011;9256;52.236;5.712;2024-01-30T12:08:00;7.63;;;2.70;;
18259;SDS011;9256;52.236;5.712;2024-01-30T12:10:28;12.07;;;2.70;;
18259;SDS011;9256;52.236;5.712;2024-01-30T12:12:55;6.20;;;2.72;;
18259;SDS011;9256;52.236;5.712;2024-01-30T12:15:23;8.10;;;2.72;;
18259;SDS011;9256;52.236;5.712;2024-01-30T12:17:51;11.50;;;2.70;;
18259;SDS011;9256;52.236;5.712;2024-01-30T12:20:19;6.95;;;2.58;;
18259;SDS011;9256;52.236;5.712;2024-01-30T12:22:48;7.90;;;2.17;;
18259;SDS011;9256;52.236;5.712;2024-01-30T12:25:20;11.55;;;2.20;;
18259;SDS011;9256;52.236;5.712;2024-01-30T12:27:49;7.22;;;2.00;;
18259;SDS011;9256;52.236;5.712;2024-01-30T12:30:16;5.70;;;1.55;;
18259;SDS011;9256;52.236;5.712;2024-01-30T12:32:44;6.63;;;1.45;;
18259;SDS011;9256;52.236;5.712;2024-01-30T12:35:12;6.70;;;1.50;;
18259;SDS011;9256;52.236;5.712;2024-01-30T12:37:40;7.20;;;1.35;;
18259;SDS011;9256;52.236;5.712;2024-01-30T12:40:08;6.18;;;1.65;;
18259;SDS011;9256;52.236;5.712;2024-01-30T12:42:37;6.63;;;1.25;;
18259;SDS011;9256;52.236;5.712;2024-01-30T12:45:05;5.18;;;1.40;;
18259;SDS011;9256;52.236;5.712;2024-01-30T12:47:32;5.43;;;1.50;;
18259;SDS011;9256;52.236;5.712;2024-01-30T12:49:59;5.07;;;1.55;;
18259;SDS011;9256;52.236;5.712;2024-01-30T12:52:27;5.15;;;2.30;;
18259;SDS011;9256;52.236;5.712;2024-01-30T12:54:54;4.85;;;2.20;;
18259;SDS011;9256;52.236;5.712;2024-01-30T12:57:21;6.07;;;2.60;;
18259;SDS011;9256;52.236;5.712;2024-01-30T12:59:50;11.15;;;2.80;;
18259;SDS011;9256;52.236;5.712;2024-01-30T13:02:17;9.35;;;2.53;;
18259;SDS011;9256;52.236;5.712;2024-01-30T13:04:45;7.40;;;2.72;;
18259;SDS011;9256;52.236;5.712;2024-01-30T13:07:12;5.40;;;2.70;;
18259;SDS011;9256;52.236;5.712;2024-01-30T13:09:39;5.35;;;2.17;;
18259;SDS011;9256;52.236;5.712;2024-01-30T13:12:06;6.57;;;2.50;;
18259;SDS011;9256;52.236;5.712;2024-01-30T13:14:34;10.80;;;2.78;;
18259;SDS011;9256;52.236;5.712;2024-01-30T13:17:02;5.50;;;2.47;;
18259;SDS011;9256;52.236;5.712;2024-01-30T13:19:30;6.93;;;2.40;;
18259;SDS011;9256;52.236;5.712;2024-01-30T13:21:57;8.48;;;2.97;;
18259;SDS011;9256;52.236;5.712;2024-01-30T13:24:24;6.50;;;3.22;;
18259;SDS011;9256;52.236;5.712;2024-01-30T13:26:52;8.82;;;2.90;;
18259;SDS011;9256;52.236;5.712;2024-01-30T13:29:19;7.35;;;2.80;;
18259;SDS011;9256;52.236;5.712;2024-01-30T13:31:46;7.80;;;2.70;;
18259;SDS011;9256;52.236;5.712;2024-01-30T13:34:15;6.50;;;2.33;;
18259;SDS011;9256;52.236;5.712;2024-01-30T13:36:42;5.53;;;2.42;;
18259;SDS011;9256;52.236;5.712;2024-01-30T13:39:10;5.25;;;2.40;;
18259;SDS011;9256;52.236;5.712;2024-01-30T13:41:37;4.00;;;2.25;;
18259;SDS011;9256;52.236;5.712;2024-01-30T13:44:05;6.53;;;2.25;;
18259;SDS011;9256;52.236;5.712;2024-01-30T13:46:32;5.88;;;2.10;;
18259;SDS011;9256;52.236;5.712;2024-01-30T13:48:59;6.13;;;1.88;;
18259;SDS011;9256;52.236;5.712;2024-01-30T13:51:28;4.53;;;1.70;;
18259;SDS011;9256;52.236;5.712;2024-01-30T13:53:55;5.63;;;1.90;;
18259;SDS011;9256;52.236;5.712;2024-01-30T13:56:22;6.88;;;1.95;;
18259;SDS011;9256;52.236;5.712;2024-01-30T13:58:50;4.32;;;2.10;;
18259;SDS011;9256;52.236;5.712;2024-01-30T14:01:18;6.45;;;1.45;;
18259;SDS011;9256;52.236;5.712;2024-01-30T14:03:45;4.90;;;1.58;;
18259;SDS011;9256;52.236;5.712;2024-01-30T14:06:12;4.40;;;1.40;;
18259;SDS011;9256;52.236;5.712;2024-01-30T14:08:41;4.97;;;1.40;;
18259;SDS011;9256;52.236;5.712;2024-01-30T14:11:09;5.00;;;1.48;;
18259;SDS011;9256;52.236;5.712;2024-01-30T14:13:36;7.13;;;1.63;;
18259;SDS011;9256;52.236;5.712;2024-01-30T14:16:03;3.03;;;1.50;;
18259;SDS011;9256;52.236;5.712;2024-01-30T14:18:31;6.10;;;2.00;;
18259;SDS011;9256;52.236;5.712;2024-01-30T14:20:58;4.75;;;2.15;;
18259;SDS011;9256;52.236;5.712;2024-01-30T14:23:25;4.68;;;2.20;;
18259;SDS011;9256;52.236;5.712;2024-01-30T14:25:54;7.75;;;2.70;;
18259;SDS011;9256;52.236;5.712;2024-01-30T14:28:21;8.25;;;2.40;;
18259;SDS011;9256;52.236;5.712;2024-01-30T14:30:48;7.05;;;2.65;;
18259;SDS011;9256;52.236;5.712;2024-01-30T14:33:16;10.18;;;2.60;;
18259;SDS011;9256;52.236;5.712;2024-01-30T14:35:43;7.45;;;2.42;;
18259;SDS011;9256;52.236;5.712;2024-01-30T14:38:10;4.50;;;2.65;;
18259;SDS011;9256;52.236;5.712;2024-01-30T14:40:38;5.53;;;2.20;;
18259;SDS011;9256;52.236;5.712;2024-01-30T14:43:07;9.38;;;4.20;;
18259;SDS011;9256;52.236;5.712;2024-01-30T14:45:34;6.00;;;2.55;;
18259;SDS011;9256;52.236;5.712;2024-01-30T14:48:01;7.63;;;2.70;;